sensor_id;sensor_type;location;lat;lon;timestamp;P1;durP1;ratioP1;P2;durP2;ratioP2
52922;SDS011;38796;42.702;23.306;2024-01-15T00:01:37;46.45;;;24.02;;
52922;SDS011;38796;42.702;23.306;2024-01-15T00:03:39;44.53;;;18.20;;
52922;SDS011;38796;42.702;23.306;2024-01-15T00:05:38;54.50;;;20.75;;
52922;SDS011;38796;42.702;23.306;2024-01-15T00:07:35;48.67;;;21.30;;
52922;SDS011;38796;42.702;23.306;2024-01-15T00:09:35;50.92;;;16.27;;
52922;SDS011;38796;42.702;23.306;2024-01-15T00:11:32;33.30;;;14.57;;
52922;SDS011;38796;42.702;23.306;2024-01-15T00:13:30;43.35;;;18.42;;
52922;SDS011;38796;42.702;23.306;2024-01-15T00:15:28;41.42;;;19.95;;
52922;SDS011;38796;42.702;23.306;2024-01-15T00:17:27;50.08;;;19.95;;
52922;SDS011;38796;42.702;23.306;2024-01-15T00:19:25;58.05;;;19.23;;
52922;SDS011;38796;42.702;23.306;2024-01-15T00:21:24;98.10;;;28.77;;
52922;SDS011;38796;42.702;23.306;2024-01-15T00:23:21;65.65;;;26.92;;
52922;SDS011;38796;42.702;23.306;2024-01-15T00:25:20;36.42;;;15.95;;
52922;SDS011;38796;42.702;23.306;2024-01-15T00:27:18;42.22;;;16.67;;
52922;SDS011;38796;42.702;23.306;2024-01-15T00:29:15;26.02;;;15.02;;
52922;SDS011;38796;42.702;23.306;2024-01-15T00:31:15;44.90;;;16.30;;
52922;SDS011;38796;42.702;23.306;2024-01-15T00:33:13;35.33;;;14.88;;
52922;SDS011;38796;42.702;23.306;2024-01-15T00:35:12;26.27;;;14.57;;
52922;SDS011;38796;42.702;23.306;2024-01-15T00:44:17;14.35;;;8.75;;
52922;SDS011;38796;42.702;23.306;2024-01-15T01:12:38;32.70;;;14.25;;
52922;SDS011;38796;42.702;23.306;2024-01-15T01:16:07;22.35;;;10.45;;
52922;SDS011;38796;42.702;23.306;2024-01-15T01:40:29;27.40;;;11.10;;
52922;SDS011;38796;42.702;23.306;2024-01-15T01:43:54;21.65;;;13.45;;
52922;SDS011;38796;42.702;23.306;2024-01-15T01:50:26;30.48;;;13.75;;
52922;SDS011;38796;42.702;23.306;2024-01-15T01:52:25;19.80;;;13.02;;
52922;SDS011;38796;42.702;23.306;2024-01-15T01:54:22;35.22;;;15.75;;
52922;SDS011;38796;42.702;23.306;2024-01-15T01:56:22;26.60;;;13.65;;
52922;SDS011;38796;42.702;23.306;2024-01-15T01:58:19;36.33;;;13.57;;
52922;SDS011;38796;42.702;23.306;2024-01-15T02:00:17;41.10;;;13.35;;
52922;SDS011;38796;42.702;23.306;2024-01-15T02:02:15;24.95;;;13.90;;
52922;SDS011;38796;42.702;23.306;2024-01-15T02:04:14;28.92;;;15.32;;
52922;SDS011;38796;42.702;23.306;2024-01-15T02:06:17;26.67;;;14.20;;
52922;SDS011;38796;42.702;23.306;2024-01-15T02:08:16;27.08;;;12.95;;
52922;SDS011;38796;42.702;23.306;2024-01-15T02:10:13;33.60;;;14.15;;
52922;SDS011;38796;42.702;23.306;2024-01-15T02:12:12;43.53;;;19.58;;
52922;SDS011;38796;42.702;23.306;2024-01-15T02:14:11;25.40;;;12.63;;
52922;SDS011;38796;42.702;23.306;2024-01-15T02:16:09;43.17;;;15.02;;
52922;SDS011;38796;42.702;23.306;2024-01-15T02:18:07;31.23;;;16.42;;
52922;SDS011;38796;42.702;23.306;2024-01-15T02:20:05;27.65;;;12.23;;
52922;SDS011;38796;42.702;23.306;2024-01-15T02:22:03;52.28;;;17.48;;
52922;SDS011;38796;42.702;23.306;2024-01-15T02:24:02;34.72;;;10.93;;
52922;SDS011;38796;42.702;23.306;2024-01-15T02:26:00;53.75;;;16.48;;
52922;SDS011;38796;42.702;23.306;2024-01-15T02:27:58;30.27;;;13.70;;
52922;SDS011;38796;42.702;23.306;2024-01-15T02:29:56;31.40;;;13.65;;
52922;SDS011;38796;42.702;23.306;2024-01-15T02:31:54;47.90;;;17.70;;
52922;SDS011;38796;42.702;23.306;2024-01-15T02:33:52;32.20;;;13.75;;
52922;SDS011;38796;42.702;23.306;2024-01-15T02:35:49;40.35;;;14.73;;
52922;SDS011;38796;42.702;23.306;2024-01-15T02:37:47;37.45;;;14.30;;
52922;SDS011;38796;42.702;23.306;2024-01-15T02:39:46;19.67;;;11.10;;
52922;SDS011;38796;42.702;23.306;2024-01-15T02:41:44;36.28;;;13.23;;
52922;SDS011;38796;42.702;23.306;2024-01-15T02:43:42;48.15;;;14.43;;
52922;SDS011;38796;42.702;23.306;2024-01-15T02:45:40;29.55;;;14.77;;
52922;SDS011;38796;42.702;23.306;2024-01-15T02:47:37;36.20;;;13.00;;
52922;SDS011;38796;42.702;23.306;2024-01-15T02:49:35;32.58;;;10.35;;
52922;SDS011;38796;42.702;23.306;2024-01-15T02:51:32;40.25;;;16.48;;
52922;SDS011;38796;42.702;23.306;2024-01-15T02:53:30;43.58;;;13.40;;
52922;SDS011;38796;42.702;23.306;2024-01-15T02:55:30;23.92;;;12.75;;
52922;SDS011;38796;42.702;23.306;2024-01-15T02:57:28;33.78;;;12.32;;
52922;SDS011;38796;42.702;23.306;2024-01-15T02:59:26;45.50;;;12.73;;
52922;SDS011;38796;42.702;23.306;2024-01-15T03:01:24;26.88;;;12.20;;
52922;SDS011;38796;42.702;23.306;2024-01-15T03:03:22;44.25;;;14.63;;
52922;SDS011;38796;42.702;23.306;2024-01-15T03:05:20;36.42;;;15.23;;
52922;SDS011;38796;42.702;23.306;2024-01-15T03:07:17;37.42;;;12.25;;
52922;SDS011;38796;42.702;23.306;2024-01-15T03:09:15;30.73;;;16.95;;
52922;SDS011;38796;42.702;23.306;2024-01-15T03:11:15;37.83;;;15.30;;
52922;SDS011;38796;42.702;23.306;2024-01-15T03:13:13;40.97;;;14.70;;
52922;SDS011;38796;42.702;23.306;2024-01-15T03:15:11;44.50;;;17.23;;
52922;SDS011;38796;42.702;23.306;2024-01-15T03:17:09;41.50;;;20.17;;
52922;SDS011;38796;42.702;23.306;2024-01-15T03:19:08;37.00;;;14.43;;
52922;SDS011;38796;42.702;23.306;2024-01-15T03:21:07;40.20;;;14.10;;
52922;SDS011;38796;42.702;23.306;2024-01-15T03:23:05;34.35;;;16.77;;
52922;SDS011;38796;42.702;23.306;2024-01-15T03:25:03;52.03;;;19.38;;
52922;SDS011;38796;42.702;23.306;2024-01-15T03:27:03;31.73;;;15.80;;
52922;SDS011;38796;42.702;23.306;2024-01-15T03:29:00;24.35;;;11.25;;
52922;SDS011;38796;42.702;23.306;2024-01-15T03:30:59;26.83;;;12.98;;
52922;SDS011;38796;42.702;23.306;2024-01-15T03:32:57;33.67;;;14.98;;
52922;SDS011;38796;42.702;23.306;2024-01-15T03:34:55;30.02;;;12.98;;
52922;SDS011;38796;42.702;23.306;2024-01-15T03:36:52;25.00;;;11.13;;
52922;SDS011;38796;42.702;23.306;2024-01-15T03:38:50;22.75;;;9.90;;
52922;SDS011;38796;42.702;23.306;2024-01-15T03:40:47;35.40;;;10.75;;
52922;SDS011;38796;42.702;23.306;2024-01-15T03:42:47;35.22;;;13.68;;
52922;SDS011;38796;42.702;23.306;2024-01-15T03:44:45;16.83;;;10.02;;
52922;SDS011;38796;42.702;23.306;2024-01-15T03:46:43;23.00;;;9.90;;
52922;SDS011;38796;42.702;23.306;2024-01-15T03:48:41;26.77;;;8.98;;
52922;SDS011;38796;42.702;23.306;2024-01-15T03:50:38;19.90;;;10.27;;
52922;SDS011;38796;42.702;23.306;2024-01-15T03:52:37;10.93;;;7.90;;
52922;SDS011;38796;42.702;23.306;2024-01-15T03:54:35;26.65;;;10.90;;
52922;SDS011;38796;42.702;23.306;2024-01-15T03:56:32;11.05;;;7.05;;
52922;SDS011;38796;42.702;23.306;2024-01-15T03:58:31;19.83;;;6.43;;
52922;SDS011;38796;42.702;23.306;2024-01-15T04:00:30;14.27;;;8.35;;
52922;SDS011;38796;42.702;23.306;2024-01-15T04:02:28;11.13;;;5.05;;
52922;SDS011;38796;42.702;23.306;2024-01-15T04:04:25;24.05;;;7.78;;
52922;SDS011;38796;42.702;23.306;2024-01-15T04:06:23;9.60;;;7.43;;
52922;SDS011;38796;42.702;23.306;2024-01-15T04:08:21;7.38;;;5.68;;
52922;SDS011;38796;42.702;23.306;2024-01-15T04:10:19;15.75;;;6.65;;
52922;SDS011;38796;42.702;23.306;2024-01-15T04:12:17;6.97;;;5.85;;
52922;SDS011;38796;42.702;23.306;2024-01-15T04:14:17;19.02;;;7.00;;
52922;SDS011;38796;42.702;23.306;2024-01-15T04:16:15;14.93;;;7.18;;
52922;SDS011;38796;42.702;23.306;2024-01-15T04:18:13;22.25;;;7.53;;
52922;SDS011;38796;42.702;23.306;2024-01-15T04:20:11;14.10;;;7.00;;
52922;SDS011;38796;42.702;23.306;2024-01-15T04:22:09;18.55;;;4.13;;
52922;SDS011;38796;42.702;23.306;2024-01-15T04:24:07;13.88;;;7.22;;
52922;SDS011;38796;42.702;23.306;2024-01-15T04:26:05;13.35;;;6.45;;
52922;SDS011;38796;42.702;23.306;2024-01-15T04:28:04;13.65;;;5.35;;
52922;SDS011;38796;42.702;23.306;2024-01-15T04:30:03;17.05;;;6.90;;
52922;SDS011;38796;42.702;23.306;2024-01-15T04:32:01;13.68;;;5.50;;
52922;SDS011;38796;42.702;23.306;2024-01-15T04:34:01;5.97;;;4.95;;
52922;SDS011;38796;42.702;23.306;2024-01-15T04:36:01;11.90;;;5.70;;
52922;SDS011;38796;42.702;23.306;2024-01-15T04:37:59;10.48;;;5.60;;
52922;SDS011;38796;42.702;23.306;2024-01-15T04:39:57;10.57;;;4.88;;
52922;SDS011;38796;42.702;23.306;2024-01-15T04:41:55;10.88;;;5.75;;
52922;SDS011;38796;42.702;23.306;2024-01-15T04:43:53;24.77;;;9.60;;
52922;SDS011;38796;42.702;23.306;2024-01-15T04:45:53;14.75;;;7.57;;
52922;SDS011;38796;42.702;23.306;2024-01-15T04:47:51;23.60;;;10.02;;
52922;SDS011;38796;42.702;23.306;2024-01-15T04:49:49;16.90;;;9.27;;
52922;SDS011;38796;42.702;23.306;2024-01-15T04:51:46;16.60;;;7.47;;
52922;SDS011;38796;42.702;23.306;2024-01-15T04:53:44;24.45;;;9.38;;
52922;SDS011;38796;42.702;23.306;2024-01-15T04:55:42;16.77;;;8.77;;
52922;SDS011;38796;42.702;23.306;2024-01-15T04:57:39;19.40;;;8.80;;
52922;SDS011;38796;42.702;23.306;2024-01-15T04:59:37;24.27;;;9.52;;
52922;SDS011;38796;42.702;23.306;2024-01-15T05:01:37;23.35;;;10.63;;
52922;SDS011;38796;42.702;23.306;2024-01-15T05:03:36;19.77;;;10.57;;
52922;SDS011;38796;42.702;23.306;2024-01-15T05:05:34;28.70;;;12.52;;
52922;SDS011;38796;42.702;23.306;2024-01-15T05:07:32;23.33;;;12.10;;
52922;SDS011;38796;42.702;23.306;2024-01-15T05:09:30;23.13;;;11.38;;
52922;SDS011;38796;42.702;23.306;2024-01-15T05:11:29;37.03;;;10.40;;
52922;SDS011;38796;42.702;23.306;2024-01-15T05:13:27;18.73;;;8.52;;
52922;SDS011;38796;42.702;23.306;2024-01-15T05:15:24;29.40;;;10.80;;
52922;SDS011;38796;42.702;23.306;2024-01-15T05:17:24;21.23;;;11.15;;
52922;SDS011;38796;42.702;23.306;2024-01-15T05:19:22;20.23;;;10.45;;
52922;SDS011;38796;42.702;23.306;2024-01-15T05:21:20;35.75;;;11.35;;
52922;SDS011;38796;42.702;23.306;2024-01-15T05:23:18;20.30;;;10.10;;
52922;SDS011;38796;42.702;23.306;2024-01-15T05:25:17;30.38;;;9.30;;
52922;SDS011;38796;42.702;23.306;2024-01-15T05:27:13;21.55;;;11.27;;
52922;SDS011;38796;42.702;23.306;2024-01-15T05:29:12;18.63;;;9.23;;
52922;SDS011;38796;42.702;23.306;2024-01-15T05:31:10;18.38;;;8.23;;
52922;SDS011;38796;42.702;23.306;2024-01-15T05:33:10;24.17;;;12.00;;
52922;SDS011;38796;42.702;23.306;2024-01-15T05:35:08;15.77;;;8.88;;
52922;SDS011;38796;42.702;23.306;2024-01-15T05:37:05;30.63;;;12.90;;
52922;SDS011;38796;42.702;23.306;2024-01-15T05:39:03;13.85;;;7.47;;
52922;SDS011;38796;42.702;23.306;2024-01-15T05:41:01;14.48;;;7.45;;
52922;SDS011;38796;42.702;23.306;2024-01-15T05:42:59;21.13;;;10.00;;
52922;SDS011;38796;42.702;23.306;2024-01-15T05:44:57;17.48;;;9.25;;
52922;SDS011;38796;42.702;23.306;2024-01-15T05:46:56;18.90;;;8.88;;
52922;SDS011;38796;42.702;23.306;2024-01-15T05:48:55;17.15;;;7.07;;
52922;SDS011;38796;42.702;23.306;2024-01-15T05:50:53;22.90;;;8.65;;
52922;SDS011;38796;42.702;23.306;2024-01-15T05:52:50;31.88;;;12.25;;
52922;SDS011;38796;42.702;23.306;2024-01-15T05:54:50;9.10;;;5.55;;
52922;SDS011;38796;42.702;23.306;2024-01-15T05:56:48;32.30;;;8.75;;
52922;SDS011;38796;42.702;23.306;2024-01-15T05:58:46;29.42;;;12.43;;
52922;SDS011;38796;42.702;23.306;2024-01-15T06:00:43;25.55;;;9.35;;
52922;SDS011;38796;42.702;23.306;2024-01-15T06:02:43;30.48;;;10.77;;
52922;SDS011;38796;42.702;23.306;2024-01-15T06:04:42;17.33;;;7.90;;
52922;SDS011;38796;42.702;23.306;2024-01-15T06:06:42;22.45;;;9.65;;
52922;SDS011;38796;42.702;23.306;2024-01-15T06:08:40;36.53;;;10.80;;
52922;SDS011;38796;42.702;23.306;2024-01-15T06:10:38;25.45;;;8.43;;
52922;SDS011;38796;42.702;23.306;2024-01-15T06:12:36;17.42;;;10.27;;
52922;SDS011;38796;42.702;23.306;2024-01-15T06:14:34;41.63;;;12.65;;
52922;SDS011;38796;42.702;23.306;2024-01-15T06:16:31;20.02;;;9.32;;
52922;SDS011;38796;42.702;23.306;2024-01-15T06:18:30;9.98;;;6.63;;
52922;SDS011;38796;42.702;23.306;2024-01-15T06:20:29;36.28;;;11.32;;
52922;SDS011;38796;42.702;23.306;2024-01-15T06:22:27;19.13;;;9.63;;
52922;SDS011;38796;42.702;23.306;2024-01-15T06:24:25;20.63;;;9.85;;
52922;SDS011;38796;42.702;23.306;2024-01-15T06:26:24;44.58;;;15.60;;
52922;SDS011;38796;42.702;23.306;2024-01-15T06:28:22;26.88;;;11.13;;
52922;SDS011;38796;42.702;23.306;2024-01-15T06:30:20;29.58;;;13.05;;
52922;SDS011;38796;42.702;23.306;2024-01-15T06:32:18;25.95;;;11.82;;
52922;SDS011;38796;42.702;23.306;2024-01-15T06:34:16;28.25;;;12.32;;
52922;SDS011;38796;42.702;23.306;2024-01-15T06:36:16;36.65;;;16.15;;
52922;SDS011;38796;42.702;23.306;2024-01-15T06:38:17;36.35;;;13.65;;
52922;SDS011;38796;42.702;23.306;2024-01-15T06:40:15;58.28;;;15.00;;
52922;SDS011;38796;42.702;23.306;2024-01-15T06:42:13;50.45;;;16.17;;
52922;SDS011;38796;42.702;23.306;2024-01-15T06:44:11;29.80;;;14.98;;
52922;SDS011;38796;42.702;23.306;2024-01-15T06:46:10;26.85;;;13.02;;
52922;SDS011;38796;42.702;23.306;2024-01-15T06:48:08;38.70;;;14.90;;
52922;SDS011;38796;42.702;23.306;2024-01-15T06:50:06;46.40;;;14.25;;
52922;SDS011;38796;42.702;23.306;2024-01-15T06:52:06;35.85;;;14.18;;
52922;SDS011;38796;42.702;23.306;2024-01-15T06:54:04;56.15;;;28.30;;
52922;SDS011;38796;42.702;23.306;2024-01-15T06:56:01;41.17;;;15.55;;
52922;SDS011;38796;42.702;23.306;2024-01-15T06:57:59;32.90;;;12.85;;
52922;SDS011;38796;42.702;23.306;2024-01-15T06:59:57;51.88;;;12.27;;
52922;SDS011;38796;42.702;23.306;2024-01-15T07:01:56;27.73;;;12.93;;
52922;SDS011;38796;42.702;23.306;2024-01-15T07:03:54;34.55;;;12.88;;
52922;SDS011;38796;42.702;23.306;2024-01-15T07:05:52;42.67;;;13.15;;
52922;SDS011;38796;42.702;23.306;2024-01-15T07:07:52;38.17;;;13.95;;
52922;SDS011;38796;42.702;23.306;2024-01-15T07:09:50;40.05;;;14.23;;
52922;SDS011;38796;42.702;23.306;2024-01-15T07:11:49;38.15;;;15.13;;
52922;SDS011;38796;42.702;23.306;2024-01-15T07:13:47;25.65;;;13.75;;
52922;SDS011;38796;42.702;23.306;2024-01-15T07:15:45;54.17;;;15.02;;
52922;SDS011;38796;42.702;23.306;2024-01-15T07:17:43;28.02;;;8.98;;
52922;SDS011;38796;42.702;23.306;2024-01-15T07:19:41;35.95;;;11.65;;
52922;SDS011;38796;42.702;23.306;2024-01-15T07:21:39;30.65;;;11.82;;
52922;SDS011;38796;42.702;23.306;2024-01-15T07:23:41;28.40;;;12.82;;
52922;SDS011;38796;42.702;23.306;2024-01-15T07:25:50;39.63;;;13.45;;
52922;SDS011;38796;42.702;23.306;2024-01-15T07:27:54;36.22;;;11.85;;
52922;SDS011;38796;42.702;23.306;2024-01-15T07:29:53;35.53;;;15.68;;
52922;SDS011;38796;42.702;23.306;2024-01-15T07:31:54;25.63;;;9.30;;
52922;SDS011;38796;42.702;23.306;2024-01-15T07:33:54;28.88;;;12.55;;
52922;SDS011;38796;42.702;23.306;2024-01-15T07:35:52;42.30;;;14.20;;
52922;SDS011;38796;42.702;23.306;2024-01-15T07:37:51;37.78;;;12.73;;
52922;SDS011;38796;42.702;23.306;2024-01-15T07:39:51;26.90;;;12.32;;
52922;SDS011;38796;42.702;23.306;2024-01-15T07:41:49;24.65;;;8.57;;
52922;SDS011;38796;42.702;23.306;2024-01-15T07:43:48;29.58;;;9.75;;
52922;SDS011;38796;42.702;23.306;2024-01-15T07:45:47;35.83;;;11.98;;
52922;SDS011;38796;42.702;23.306;2024-01-15T07:47:45;21.73;;;11.73;;
52922;SDS011;38796;42.702;23.306;2024-01-15T07:49:46;22.90;;;10.73;;
52922;SDS011;38796;42.702;23.306;2024-01-15T07:51:45;24.95;;;10.38;;
52922;SDS011;38796;42.702;23.306;2024-01-15T07:53:43;29.45;;;10.63;;
52922;SDS011;38796;42.702;23.306;2024-01-15T07:55:43;30.42;;;10.48;;
52922;SDS011;38796;42.702;23.306;2024-01-15T07:57:43;31.90;;;11.65;;
52922;SDS011;38796;42.702;23.306;2024-01-15T07:59:51;34.03;;;11.63;;
52922;SDS011;38796;42.702;23.306;2024-01-15T08:01:53;33.30;;;13.07;;
52922;SDS011;38796;42.702;23.306;2024-01-15T08:03:52;52.13;;;16.98;;
52922;SDS011;38796;42.702;23.306;2024-01-15T08:05:52;32.75;;;14.52;;
52922;SDS011;38796;42.702;23.306;2024-01-15T08:07:51;63.55;;;23.45;;
52922;SDS011;38796;42.702;23.306;2024-01-15T08:09:52;43.13;;;20.00;;
52922;SDS011;38796;42.702;23.306;2024-01-15T08:11:52;45.88;;;19.50;;
52922;SDS011;38796;42.702;23.306;2024-01-15T08:13:50;35.35;;;15.45;;
52922;SDS011;38796;42.702;23.306;2024-01-15T08:15:48;39.90;;;16.55;;
52922;SDS011;38796;42.702;23.306;2024-01-15T08:17:47;44.67;;;16.85;;
52922;SDS011;38796;42.702;23.306;2024-01-15T08:19:45;46.63;;;17.77;;
52922;SDS011;38796;42.702;23.306;2024-01-15T08:21:43;35.50;;;15.63;;
52922;SDS011;38796;42.702;23.306;2024-01-15T08:23:42;38.05;;;16.38;;
52922;SDS011;38796;42.702;23.306;2024-01-15T08:25:40;34.63;;;14.93;;
52922;SDS011;38796;42.702;23.306;2024-01-15T08:27:40;41.15;;;17.70;;
52922;SDS011;38796;42.702;23.306;2024-01-15T08:29:37;42.50;;;14.15;;
52922;SDS011;38796;42.702;23.306;2024-01-15T08:31:34;34.25;;;16.75;;
52922;SDS011;38796;42.702;23.306;2024-01-15T08:33:33;34.13;;;19.15;;
52922;SDS011;38796;42.702;23.306;2024-01-15T08:35:31;42.25;;;17.90;;
52922;SDS011;38796;42.702;23.306;2024-01-15T08:37:29;54.15;;;18.88;;
52922;SDS011;38796;42.702;23.306;2024-01-15T08:39:27;53.65;;;14.73;;
52922;SDS011;38796;42.702;23.306;2024-01-15T08:41:25;30.63;;;15.02;;
52922;SDS011;38796;42.702;23.306;2024-01-15T08:43:24;26.92;;;13.32;;
52922;SDS011;38796;42.702;23.306;2024-01-15T08:45:22;41.30;;;14.65;;
52922;SDS011;38796;42.702;23.306;2024-01-15T08:47:20;46.45;;;17.25;;
52922;SDS011;38796;42.702;23.306;2024-01-15T08:49:18;36.55;;;13.88;;
52922;SDS011;38796;42.702;23.306;2024-01-15T08:51:18;46.35;;;18.95;;
52922;SDS011;38796;42.702;23.306;2024-01-15T08:53:16;34.05;;;15.95;;
52922;SDS011;38796;42.702;23.306;2024-01-15T08:55:14;64.47;;;18.27;;
52922;SDS011;38796;42.702;23.306;2024-01-15T08:57:12;41.72;;;17.98;;
52922;SDS011;38796;42.702;23.306;2024-01-15T08:59:11;42.63;;;17.10;;
52922;SDS011;38796;42.702;23.306;2024-01-15T09:01:09;51.58;;;21.27;;
52922;SDS011;38796;42.702;23.306;2024-01-15T09:03:08;49.08;;;19.42;;
52922;SDS011;38796;42.702;23.306;2024-01-15T09:05:05;45.70;;;19.52;;
52922;SDS011;38796;42.702;23.306;2024-01-15T09:07:04;57.67;;;21.15;;
52922;SDS011;38796;42.702;23.306;2024-01-15T09:09:02;37.95;;;16.75;;
52922;SDS011;38796;42.702;23.306;2024-01-15T09:10:59;69.25;;;25.73;;
52922;SDS011;38796;42.702;23.306;2024-01-15T09:12:59;57.60;;;19.83;;
52922;SDS011;38796;42.702;23.306;2024-01-15T09:14:59;39.92;;;17.63;;
52922;SDS011;38796;42.702;23.306;2024-01-15T09:16:57;63.75;;;19.02;;
52922;SDS011;38796;42.702;23.306;2024-01-15T09:18:55;51.08;;;21.65;;
52922;SDS011;38796;42.702;23.306;2024-01-15T09:20:54;52.25;;;19.10;;
52922;SDS011;38796;42.702;23.306;2024-01-15T09:22:52;48.47;;;23.52;;
52922;SDS011;38796;42.702;23.306;2024-01-15T09:24:49;41.03;;;18.83;;
52922;SDS011;38796;42.702;23.306;2024-01-15T09:26:47;50.33;;;19.63;;
52922;SDS011;38796;42.702;23.306;2024-01-15T09:28:46;38.50;;;18.48;;
52922;SDS011;38796;42.702;23.306;2024-01-15T09:30:45;49.83;;;19.40;;
52922;SDS011;38796;42.702;23.306;2024-01-15T09:32:44;44.50;;;19.23;;
52922;SDS011;38796;42.702;23.306;2024-01-15T09:34:42;43.97;;;16.95;;
52922;SDS011;38796;42.702;23.306;2024-01-15T09:36:40;59.17;;;19.73;;
52922;SDS011;38796;42.702;23.306;2024-01-15T09:38:40;44.17;;;16.05;;
52922;SDS011;38796;42.702;23.306;2024-01-15T09:40:38;47.13;;;16.92;;
52922;SDS011;38796;42.702;23.306;2024-01-15T09:42:36;45.35;;;18.15;;
52922;SDS011;38796;42.702;23.306;2024-01-15T09:44:33;46.17;;;19.25;;
52922;SDS011;38796;42.702;23.306;2024-01-15T09:46:33;45.75;;;16.73;;
52922;SDS011;38796;42.702;23.306;2024-01-15T09:48:30;45.80;;;20.15;;
52922;SDS011;38796;42.702;23.306;2024-01-15T09:50:31;48.20;;;19.65;;
52922;SDS011;38796;42.702;23.306;2024-01-15T09:52:29;47.47;;;17.65;;
52922;SDS011;38796;42.702;23.306;2024-01-15T09:54:27;49.35;;;19.58;;
52922;SDS011;38796;42.702;23.306;2024-01-15T09:56:25;48.95;;;18.90;;
52922;SDS011;38796;42.702;23.306;2024-01-15T09:58:23;49.35;;;18.55;;
52922;SDS011;38796;42.702;23.306;2024-01-15T10:00:22;68.60;;;21.25;;
52922;SDS011;38796;42.702;23.306;2024-01-15T10:02:22;52.97;;;19.65;;
52922;SDS011;38796;42.702;23.306;2024-01-15T10:04:20;46.75;;;19.40;;
52922;SDS011;38796;42.702;23.306;2024-01-15T10:06:19;43.45;;;19.75;;
52922;SDS011;38796;42.702;23.306;2024-01-15T10:08:19;34.33;;;17.25;;
52922;SDS011;38796;42.702;23.306;2024-01-15T10:10:17;43.53;;;17.38;;
52922;SDS011;38796;42.702;23.306;2024-01-15T10:12:15;35.85;;;12.85;;
52922;SDS011;38796;42.702;23.306;2024-01-15T10:14:13;39.90;;;12.02;;
52922;SDS011;38796;42.702;23.306;2024-01-15T10:16:11;34.72;;;14.63;;
52922;SDS011;38796;42.702;23.306;2024-01-15T10:18:10;29.83;;;13.07;;
52922;SDS011;38796;42.702;23.306;2024-01-15T10:20:09;40.05;;;16.00;;
52922;SDS011;38796;42.702;23.306;2024-01-15T10:22:09;27.95;;;14.43;;
52922;SDS011;38796;42.702;23.306;2024-01-15T10:24:06;35.28;;;15.10;;
52922;SDS011;38796;42.702;23.306;2024-01-15T10:26:04;37.75;;;13.65;;
52922;SDS011;38796;42.702;23.306;2024-01-15T10:28:03;29.95;;;11.90;;
52922;SDS011;38796;42.702;23.306;2024-01-15T10:30:01;29.35;;;13.18;;
52922;SDS011;38796;42.702;23.306;2024-01-15T10:32:00;32.25;;;14.02;;
52922;SDS011;38796;42.702;23.306;2024-01-15T10:34:10;29.98;;;11.98;;
52922;SDS011;38796;42.702;23.306;2024-01-15T10:36:10;28.00;;;12.80;;
52922;SDS011;38796;42.702;23.306;2024-01-15T10:38:08;32.17;;;13.23;;
52922;SDS011;38796;42.702;23.306;2024-01-15T10:40:07;37.55;;;14.77;;
52922;SDS011;38796;42.702;23.306;2024-01-15T10:42:04;29.92;;;12.80;;
52922;SDS011;38796;42.702;23.306;2024-01-15T10:44:04;30.52;;;13.75;;
52922;SDS011;38796;42.702;23.306;2024-01-15T10:46:02;24.92;;;13.00;;
52922;SDS011;38796;42.702;23.306;2024-01-15T10:48:00;39.38;;;12.82;;
52922;SDS011;38796;42.702;23.306;2024-01-15T10:50:00;20.52;;;9.75;;
52922;SDS011;38796;42.702;23.306;2024-01-15T10:52:00;20.85;;;9.57;;
52922;SDS011;38796;42.702;23.306;2024-01-15T10:53:59;27.15;;;10.85;;
52922;SDS011;38796;42.702;23.306;2024-01-15T10:55:57;18.13;;;9.00;;
52922;SDS011;38796;42.702;23.306;2024-01-15T10:57:55;19.73;;;8.18;;
52922;SDS011;38796;42.702;23.306;2024-01-15T10:59:54;19.13;;;7.53;;
52922;SDS011;38796;42.702;23.306;2024-01-15T11:01:52;37.03;;;14.70;;
52922;SDS011;38796;42.702;23.306;2024-01-15T11:03:52;30.38;;;12.35;;
52922;SDS011;38796;42.702;23.306;2024-01-15T11:05:53;24.00;;;9.43;;
52922;SDS011;38796;42.702;23.306;2024-01-15T11:07:51;31.77;;;11.85;;
52922;SDS011;38796;42.702;23.306;2024-01-15T11:09:51;21.60;;;9.32;;
52922;SDS011;38796;42.702;23.306;2024-01-15T11:11:51;29.08;;;11.77;;
52922;SDS011;38796;42.702;23.306;2024-01-15T11:13:50;40.17;;;9.70;;
52922;SDS011;38796;42.702;23.306;2024-01-15T11:15:55;22.17;;;10.50;;
52922;SDS011;38796;42.702;23.306;2024-01-15T11:17:57;18.40;;;8.82;;
52922;SDS011;38796;42.702;23.306;2024-01-15T11:19:56;21.08;;;8.90;;
52922;SDS011;38796;42.702;23.306;2024-01-15T11:21:57;18.58;;;9.05;;
52922;SDS011;38796;42.702;23.306;2024-01-15T11:23:57;21.17;;;10.90;;
52922;SDS011;38796;42.702;23.306;2024-01-15T11:25:54;26.05;;;11.73;;
52922;SDS011;38796;42.702;23.306;2024-01-15T11:27:53;19.85;;;7.85;;
52922;SDS011;38796;42.702;23.306;2024-01-15T11:30:02;23.48;;;9.85;;
52922;SDS011;38796;42.702;23.306;2024-01-15T11:32:00;24.98;;;10.38;;
52922;SDS011;38796;42.702;23.306;2024-01-15T11:34:01;29.10;;;10.80;;
52922;SDS011;38796;42.702;23.306;2024-01-15T11:35:59;20.42;;;8.93;;
52922;SDS011;38796;42.702;23.306;2024-01-15T11:37:59;22.58;;;8.95;;
52922;SDS011;38796;42.702;23.306;2024-01-15T11:40:07;25.30;;;8.15;;
52922;SDS011;38796;42.702;23.306;2024-01-15T11:42:09;45.20;;;15.48;;
52922;SDS011;38796;42.702;23.306;2024-01-15T11:44:07;29.20;;;11.50;;
52922;SDS011;38796;42.702;23.306;2024-01-15T11:46:05;20.20;;;9.95;;
52922;SDS011;38796;42.702;23.306;2024-01-15T11:48:11;24.25;;;10.55;;
52922;SDS011;38796;42.702;23.306;2024-01-15T11:50:10;19.17;;;7.78;;
52922;SDS011;38796;42.702;23.306;2024-01-15T11:52:08;12.82;;;7.55;;
52922;SDS011;38796;42.702;23.306;2024-01-15T11:54:09;13.48;;;7.57;;
52922;SDS011;38796;42.702;23.306;2024-01-15T11:56:11;19.92;;;6.97;;
52922;SDS011;38796;42.702;23.306;2024-01-15T11:58:12;14.00;;;6.82;;
52922;SDS011;38796;42.702;23.306;2024-01-15T12:00:10;13.85;;;5.82;;
52922;SDS011;38796;42.702;23.306;2024-01-15T12:02:08;11.30;;;6.10;;
52922;SDS011;38796;42.702;23.306;2024-01-15T12:04:09;13.00;;;6.60;;
52922;SDS011;38796;42.702;23.306;2024-01-15T12:06:14;14.93;;;6.85;;
52922;SDS011;38796;42.702;23.306;2024-01-15T12:08:13;21.23;;;7.63;;
52922;SDS011;38796;42.702;23.306;2024-01-15T12:10:13;16.23;;;6.78;;
52922;SDS011;38796;42.702;23.306;2024-01-15T12:12:16;19.67;;;5.95;;
52922;SDS011;38796;42.702;23.306;2024-01-15T12:14:16;17.08;;;7.45;;
52922;SDS011;38796;42.702;23.306;2024-01-15T12:16:14;17.08;;;7.75;;
52922;SDS011;38796;42.702;23.306;2024-01-15T12:18:13;14.18;;;5.45;;
52922;SDS011;38796;42.702;23.306;2024-01-15T12:22:44;12.63;;;5.68;;
52922;SDS011;38796;42.702;23.306;2024-01-15T12:24:56;15.57;;;6.63;;
52922;SDS011;38796;42.702;23.306;2024-01-15T12:26:56;11.05;;;5.30;;
52922;SDS011;38796;42.702;23.306;2024-01-15T12:28:54;18.77;;;7.60;;
52922;SDS011;38796;42.702;23.306;2024-01-15T12:30:58;10.40;;;5.13;;
52922;SDS011;38796;42.702;23.306;2024-01-15T12:32:57;13.25;;;5.55;;
52922;SDS011;38796;42.702;23.306;2024-01-15T12:35:03;9.70;;;5.03;;